sensor_id;sensor_type;location;lat;lon;timestamp;P1;durP1;ratioP1;P2;durP2;ratioP2
30303;SDS011;17112;48.636;10.152;2023-05-10T00:01:04;2.78;;;2.42;;
30303;SDS011;17112;48.636;10.152;2023-05-10T00:03:29;3.17;;;2.90;;
30303;SDS011;17112;48.636;10.152;2023-05-10T00:05:55;3.15;;;2.85;;
30303;SDS011;17112;48.636;10.152;2023-05-10T00:08:21;2.92;;;2.70;;
30303;SDS011;17112;48.636;10.152;2023-05-10T00:10:47;3.25;;;2.80;;
30303;SDS011;17112;48.636;10.152;2023-05-10T00:13:14;2.88;;;2.58;;
30303;SDS011;17112;48.636;10.152;2023-05-10T00:15:39;5.57;;;2.88;;
30303;SDS011;17112;48.636;10.152;2023-05-10T00:18:05;2.83;;;2.63;;
30303;SDS011;17112;48.636;10.152;2023-05-10T00:20:30;3.10;;;2.60;;
30303;SDS011;17112;48.636;10.152;2023-05-10T00:22:56;2.72;;;2.50;;
30303;SDS011;17112;48.636;10.152;2023-05-10T00:25:22;2.83;;;2.55;;
30303;SDS011;17112;48.636;10.152;2023-05-10T00:27:47;3.90;;;2.53;;
30303;SDS011;17112;48.636;10.152;2023-05-10T00:30:14;2.75;;;2.55;;
30303;SDS011;17112;48.636;10.152;2023-05-10T00:32:40;2.95;;;2.65;;
30303;SDS011;17112;48.636;10.152;2023-05-10T00:35:06;2.97;;;2.75;;
30303;SDS011;17112;48.636;10.152;2023-05-10T00:37:32;2.88;;;2.63;;
30303;SDS011;17112;48.636;10.152;2023-05-10T00:39:58;2.65;;;2.45;;
30303;SDS011;17112;48.636;10.152;2023-05-10T00:42:23;5.78;;;2.50;;
30303;SDS011;17112;48.636;10.152;2023-05-10T00:44:49;2.30;;;2.10;;
30303;SDS011;17112;48.636;10.152;2023-05-10T00:47:15;5.43;;;2.47;;
30303;SDS011;17112;48.636;10.152;2023-05-10T00:49:43;4.07;;;2.47;;
30303;SDS011;17112;48.636;10.152;2023-05-10T00:52:09;2.45;;;2.25;;
30303;SDS011;17112;48.636;10.152;2023-05-10T00:54:35;2.90;;;2.30;;
30303;SDS011;17112;48.636;10.152;2023-05-10T00:57:01;2.25;;;2.13;;
30303;SDS011;17112;48.636;10.152;2023-05-10T00:59:27;3.47;;;2.10;;
30303;SDS011;17112;48.636;10.152;2023-05-10T01:01:53;2.15;;;2.05;;
30303;SDS011;17112;48.636;10.152;2023-05-10T01:04:19;2.25;;;2.03;;
30303;SDS011;17112;48.636;10.152;2023-05-10T01:06:50;2.60;;;2.20;;
30303;SDS011;17112;48.636;10.152;2023-05-10T01:09:16;2.70;;;2.35;;
30303;SDS011;17112;48.636;10.152;2023-05-10T01:11:43;2.70;;;2.30;;
30303;SDS011;17112;48.636;10.152;2023-05-10T01:14:09;3.50;;;2.20;;
30303;SDS011;17112;48.636;10.152;2023-05-10T01:16:38;2.10;;;2.00;;
30303;SDS011;17112;48.636;10.152;2023-05-10T01:19:08;6.50;;;2.17;;
30303;SDS011;17112;48.636;10.152;2023-05-10T01:35:47;1.25;;;1.17;;
30303;SDS011;17112;48.636;10.152;2023-05-10T01:38:22;1.08;;;0.98;;
30303;SDS011;17112;48.636;10.152;2023-05-10T01:41:12;2.15;;;1.08;;
30303;SDS011;17112;48.636;10.152;2023-05-10T01:43:57;1.20;;;1.00;;
30303;SDS011;17112;48.636;10.152;2023-05-10T01:46:35;1.10;;;0.90;;
30303;SDS011;17112;48.636;10.152;2023-05-10T01:49:02;0.93;;;0.80;;
30303;SDS011;17112;48.636;10.152;2023-05-10T01:51:40;1.80;;;0.80;;
30303;SDS011;17112;48.636;10.152;2023-05-10T01:54:11;0.60;;;0.60;;
30303;SDS011;17112;48.636;10.152;2023-05-10T01:56:39;1.38;;;0.60;;
30303;SDS011;17112;48.636;10.152;2023-05-10T01:59:09;0.60;;;0.60;;
30303;SDS011;17112;48.636;10.152;2023-05-10T02:01:39;0.60;;;0.60;;
30303;SDS011;17112;48.636;10.152;2023-05-10T02:04:06;0.95;;;0.55;;
30303;SDS011;17112;48.636;10.152;2023-05-10T02:06:33;0.50;;;0.50;;
30303;SDS011;17112;48.636;10.152;2023-05-10T02:09:00;0.40;;;0.40;;
30303;SDS011;17112;48.636;10.152;2023-05-10T02:11:27;0.40;;;0.40;;
30303;SDS011;17112;48.636;10.152;2023-05-10T02:13:54;2.85;;;0.40;;
30303;SDS011;17112;48.636;10.152;2023-05-10T02:16:21;0.35;;;0.35;;
30303;SDS011;17112;48.636;10.152;2023-05-10T02:18:51;1.15;;;0.40;;
30303;SDS011;17112;48.636;10.152;2023-05-10T02:21:19;0.40;;;0.40;;
30303;SDS011;17112;48.636;10.152;2023-05-10T02:23:46;0.98;;;0.57;;
30303;SDS011;17112;48.636;10.152;2023-05-10T02:26:15;0.50;;;0.50;;
30303;SDS011;17112;48.636;10.152;2023-05-10T02:28:41;0.40;;;0.40;;
30303;SDS011;17112;48.636;10.152;2023-05-10T02:31:08;4.32;;;0.40;;
30303;SDS011;17112;48.636;10.152;2023-05-10T02:33:35;0.90;;;0.40;;
30303;SDS011;17112;48.636;10.152;2023-05-10T02:36:03;0.40;;;0.40;;
30303;SDS011;17112;48.636;10.152;2023-05-10T02:38:30;0.50;;;0.32;;
30303;SDS011;17112;48.636;10.152;2023-05-10T02:40:57;0.45;;;0.40;;
30303;SDS011;17112;48.636;10.152;2023-05-10T02:43:25;0.38;;;0.38;;
30303;SDS011;17112;48.636;10.152;2023-05-10T02:45:51;0.65;;;0.40;;
30303;SDS011;17112;48.636;10.152;2023-05-10T02:48:17;2.10;;;0.40;;
30303;SDS011;17112;48.636;10.152;2023-05-10T02:50:43;2.58;;;0.40;;
30303;SDS011;17112;48.636;10.152;2023-05-10T02:53:10;3.58;;;0.45;;
30303;SDS011;17112;48.636;10.152;2023-05-10T02:55:41;2.28;;;0.50;;
30303;SDS011;17112;48.636;10.152;2023-05-10T02:58:10;0.93;;;0.60;;
30303;SDS011;17112;48.636;10.152;2023-05-10T03:00:36;0.40;;;0.40;;
30303;SDS011;17112;48.636;10.152;2023-05-10T03:03:02;1.27;;;0.50;;
30303;SDS011;17112;48.636;10.152;2023-05-10T03:05:27;3.13;;;0.60;;
30303;SDS011;17112;48.636;10.152;2023-05-10T03:07:53;6.55;;;0.50;;
30303;SDS011;17112;48.636;10.152;2023-05-10T03:10:21;2.17;;;0.52;;
30303;SDS011;17112;48.636;10.152;2023-05-10T03:16:08;7.80;;;0.60;;
30303;SDS011;17112;48.636;10.152;2023-05-10T03:18:56;1.23;;;0.60;;
30303;SDS011;17112;48.636;10.152;2023-05-10T03:21:31;0.57;;;0.57;;
30303;SDS011;17112;48.636;10.152;2023-05-10T03:24:16;1.02;;;0.55;;
30303;SDS011;17112;48.636;10.152;2023-05-10T03:26:45;0.55;;;0.50;;
30303;SDS011;17112;48.636;10.152;2023-05-10T03:29:11;3.85;;;0.50;;
30303;SDS011;17112;48.636;10.152;2023-05-10T03:31:39;0.43;;;0.43;;
30303;SDS011;17112;48.636;10.152;2023-05-10T03:34:05;0.63;;;0.50;;
30303;SDS011;17112;48.636;10.152;2023-05-10T03:36:31;1.25;;;0.50;;
30303;SDS011;17112;48.636;10.152;2023-05-10T03:38:57;0.85;;;0.50;;
30303;SDS011;17112;48.636;10.152;2023-05-10T03:41:23;1.08;;;0.50;;
30303;SDS011;17112;48.636;10.152;2023-05-10T03:43:50;0.52;;;0.52;;
30303;SDS011;17112;48.636;10.152;2023-05-10T03:46:16;0.50;;;0.50;;
30303;SDS011;17112;48.636;10.152;2023-05-10T03:48:41;1.23;;;0.60;;
30303;SDS011;17112;48.636;10.152;2023-05-10T03:51:07;1.40;;;0.50;;
30303;SDS011;17112;48.636;10.152;2023-05-10T03:53:33;0.52;;;0.50;;
30303;SDS011;17112;48.636;10.152;2023-05-10T03:55:59;0.80;;;0.47;;
30303;SDS011;17112;48.636;10.152;2023-05-10T03:58:24;0.63;;;0.57;;
30303;SDS011;17112;48.636;10.152;2023-05-10T04:00:50;0.70;;;0.70;;
30303;SDS011;17112;48.636;10.152;2023-05-10T04:03:16;2.70;;;0.55;;
30303;SDS011;17112;48.636;10.152;2023-05-10T04:05:42;4.05;;;0.85;;
30303;SDS011;17112;48.636;10.152;2023-05-10T04:08:08;0.63;;;0.50;;
30303;SDS011;17112;48.636;10.152;2023-05-10T04:10:34;0.57;;;0.40;;
30303;SDS011;17112;48.636;10.152;2023-05-10T04:12:59;0.40;;;0.40;;
30303;SDS011;17112;48.636;10.152;2023-05-10T04:15:25;1.08;;;0.65;;
30303;SDS011;17112;48.636;10.152;2023-05-10T04:17:51;0.55;;;0.40;;
30303;SDS011;17112;48.636;10.152;2023-05-10T04:20:16;2.70;;;0.60;;
30303;SDS011;17112;48.636;10.152;2023-05-10T04:22:42;2.78;;;0.88;;
30303;SDS011;17112;48.636;10.152;2023-05-10T04:25:08;0.50;;;0.50;;
30303;SDS011;17112;48.636;10.152;2023-05-10T04:27:34;5.47;;;0.68;;
30303;SDS011;17112;48.636;10.152;2023-05-10T04:30:00;1.30;;;0.43;;
30303;SDS011;17112;48.636;10.152;2023-05-10T04:32:27;1.10;;;0.45;;
30303;SDS011;17112;48.636;10.152;2023-05-10T04:34:53;0.45;;;0.45;;
30303;SDS011;17112;48.636;10.152;2023-05-10T04:37:18;2.78;;;0.60;;
30303;SDS011;17112;48.636;10.152;2023-05-10T04:39:46;0.90;;;0.50;;
30303;SDS011;17112;48.636;10.152;2023-05-10T04:42:11;0.50;;;0.50;;
30303;SDS011;17112;48.636;10.152;2023-05-10T04:44:39;2.92;;;0.60;;
30303;SDS011;17112;48.636;10.152;2023-05-10T04:47:05;0.50;;;0.50;;
30303;SDS011;17112;48.636;10.152;2023-05-10T04:49:31;0.75;;;0.50;;
30303;SDS011;17112;48.636;10.152;2023-05-10T04:51:57;1.35;;;0.60;;
30303;SDS011;17112;48.636;10.152;2023-05-10T04:54:23;0.80;;;0.60;;
30303;SDS011;17112;48.636;10.152;2023-05-10T04:56:48;0.60;;;0.60;;
30303;SDS011;17112;48.636;10.152;2023-05-10T04:59:14;0.50;;;0.50;;
30303;SDS011;17112;48.636;10.152;2023-05-10T05:01:39;1.50;;;0.57;;
30303;SDS011;17112;48.636;10.152;2023-05-10T05:04:05;2.22;;;0.60;;
30303;SDS011;17112;48.636;10.152;2023-05-10T05:06:31;0.75;;;0.50;;
30303;SDS011;17112;48.636;10.152;2023-05-10T05:08:57;0.40;;;0.40;;
30303;SDS011;17112;48.636;10.152;2023-05-10T05:11:23;0.93;;;0.52;;
30303;SDS011;17112;48.636;10.152;2023-05-10T05:13:48;1.02;;;0.50;;
30303;SDS011;17112;48.636;10.152;2023-05-10T05:16:14;1.00;;;0.55;;
30303;SDS011;17112;48.636;10.152;2023-05-10T05:18:40;0.45;;;0.45;;
30303;SDS011;17112;48.636;10.152;2023-05-10T05:21:17;1.15;;;0.80;;
30303;SDS011;17112;48.636;10.152;2023-05-10T05:23:44;1.05;;;0.50;;
30303;SDS011;17112;48.636;10.152;2023-05-10T05:26:10;1.45;;;0.80;;
30303;SDS011;17112;48.636;10.152;2023-05-10T05:28:36;1.50;;;0.60;;
30303;SDS011;17112;48.636;10.152;2023-05-10T05:31:02;1.40;;;0.60;;
30303;SDS011;17112;48.636;10.152;2023-05-10T05:33:32;1.73;;;0.60;;
30303;SDS011;17112;48.636;10.152;2023-05-10T05:36:04;1.08;;;0.50;;
30303;SDS011;17112;48.636;10.152;2023-05-10T05:38:31;1.33;;;0.82;;
30303;SDS011;17112;48.636;10.152;2023-05-10T05:40:57;4.20;;;0.90;;
30303;SDS011;17112;48.636;10.152;2023-05-10T05:43:22;0.88;;;0.70;;
30303;SDS011;17112;48.636;10.152;2023-05-10T05:45:48;0.60;;;0.60;;
30303;SDS011;17112;48.636;10.152;2023-05-10T05:48:14;1.33;;;0.52;;
30303;SDS011;17112;48.636;10.152;2023-05-10T05:50:40;1.58;;;0.60;;
30303;SDS011;17112;48.636;10.152;2023-05-10T05:53:05;0.88;;;0.68;;
30303;SDS011;17112;48.636;10.152;2023-05-10T05:55:31;3.00;;;0.60;;
30303;SDS011;17112;48.636;10.152;2023-05-10T05:57:57;1.67;;;0.73;;
30303;SDS011;17112;48.636;10.152;2023-05-10T06:00:23;2.17;;;0.80;;
30303;SDS011;17112;48.636;10.152;2023-05-10T06:02:49;1.08;;;0.68;;
30303;SDS011;17112;48.636;10.152;2023-05-10T06:05:14;0.82;;;0.60;;
30303;SDS011;17112;48.636;10.152;2023-05-10T06:07:40;0.80;;;0.70;;
30303;SDS011;17112;48.636;10.152;2023-05-10T06:10:09;3.75;;;0.60;;
30303;SDS011;17112;48.636;10.152;2023-05-10T06:12:35;1.05;;;0.60;;
30303;SDS011;17112;48.636;10.152;2023-05-10T06:15:01;1.25;;;0.57;;
30303;SDS011;17112;48.636;10.152;2023-05-10T06:17:27;1.55;;;0.50;;
30303;SDS011;17112;48.636;10.152;2023-05-10T06:19:53;0.95;;;0.60;;
30303;SDS011;17112;48.636;10.152;2023-05-10T06:22:19;4.15;;;0.80;;
30303;SDS011;17112;48.636;10.152;2023-05-10T06:24:46;3.95;;;0.63;;
30303;SDS011;17112;48.636;10.152;2023-05-10T06:27:12;1.15;;;0.73;;
30303;SDS011;17112;48.636;10.152;2023-05-10T06:29:38;1.75;;;0.60;;
30303;SDS011;17112;48.636;10.152;2023-05-10T06:32:04;4.13;;;0.60;;
30303;SDS011;17112;48.636;10.152;2023-05-10T06:34:29;1.75;;;0.65;;
30303;SDS011;17112;48.636;10.152;2023-05-10T06:36:55;0.50;;;0.50;;
30303;SDS011;17112;48.636;10.152;2023-05-10T06:39:21;1.17;;;0.77;;
30303;SDS011;17112;48.636;10.152;2023-05-10T06:41:47;0.82;;;0.60;;
30303;SDS011;17112;48.636;10.152;2023-05-10T06:44:12;0.50;;;0.50;;
30303;SDS011;17112;48.636;10.152;2023-05-10T06:46:38;1.58;;;0.63;;
30303;SDS011;17112;48.636;10.152;2023-05-10T06:49:04;0.65;;;0.60;;
30303;SDS011;17112;48.636;10.152;2023-05-10T06:51:29;1.02;;;0.70;;
30303;SDS011;17112;48.636;10.152;2023-05-10T06:53:55;1.45;;;0.60;;
30303;SDS011;17112;48.636;10.152;2023-05-10T06:56:21;0.63;;;0.40;;
30303;SDS011;17112;48.636;10.152;2023-05-10T06:58:47;4.75;;;0.70;;
30303;SDS011;17112;48.636;10.152;2023-05-10T07:01:13;2.85;;;0.50;;
30303;SDS011;17112;48.636;10.152;2023-05-10T07:03:39;4.22;;;0.60;;
30303;SDS011;17112;48.636;10.152;2023-05-10T07:06:05;0.57;;;0.50;;
30303;SDS011;17112;48.636;10.152;2023-05-10T07:08:32;2.85;;;0.63;;
30303;SDS011;17112;48.636;10.152;2023-05-10T07:10:59;0.50;;;0.50;;
30303;SDS011;17112;48.636;10.152;2023-05-10T07:13:29;1.27;;;0.60;;
30303;SDS011;17112;48.636;10.152;2023-05-10T07:15:59;1.17;;;0.70;;
30303;SDS011;17112;48.636;10.152;2023-05-10T07:18:25;1.52;;;0.60;;
30303;SDS011;17112;48.636;10.152;2023-05-10T07:20:51;0.50;;;0.50;;
30303;SDS011;17112;48.636;10.152;2023-05-10T07:23:17;0.77;;;0.52;;
30303;SDS011;17112;48.636;10.152;2023-05-10T07:25:49;0.63;;;0.55;;
30303;SDS011;17112;48.636;10.152;2023-05-10T07:28:18;2.40;;;0.90;;
30303;SDS011;17112;48.636;10.152;2023-05-10T07:30:44;3.40;;;0.77;;
30303;SDS011;17112;48.636;10.152;2023-05-10T07:33:12;4.43;;;0.70;;
30303;SDS011;17112;48.636;10.152;2023-05-10T07:35:38;1.38;;;0.70;;
30303;SDS011;17112;48.636;10.152;2023-05-10T07:38:04;1.48;;;0.52;;
30303;SDS011;17112;48.636;10.152;2023-05-10T07:40:30;1.08;;;0.60;;
30303;SDS011;17112;48.636;10.152;2023-05-10T07:42:55;2.58;;;0.70;;
30303;SDS011;17112;48.636;10.152;2023-05-10T07:45:21;1.45;;;0.70;;
30303;SDS011;17112;48.636;10.152;2023-05-10T07:47:48;1.52;;;0.70;;
30303;SDS011;17112;48.636;10.152;2023-05-10T07:50:14;1.35;;;0.60;;
30303;SDS011;17112;48.636;10.152;2023-05-10T07:52:39;1.05;;;0.60;;
30303;SDS011;17112;48.636;10.152;2023-05-10T07:55:05;1.70;;;0.70;;
30303;SDS011;17112;48.636;10.152;2023-05-10T07:57:32;0.75;;;0.60;;
30303;SDS011;17112;48.636;10.152;2023-05-10T07:59:58;1.55;;;0.60;;
30303;SDS011;17112;48.636;10.152;2023-05-10T08:02:24;1.75;;;0.73;;
30303;SDS011;17112;48.636;10.152;2023-05-10T08:04:50;0.85;;;0.70;;
30303;SDS011;17112;48.636;10.152;2023-05-10T08:07:16;1.75;;;0.70;;
30303;SDS011;17112;48.636;10.152;2023-05-10T08:09:42;2.17;;;0.60;;
30303;SDS011;17112;48.636;10.152;2023-05-10T08:12:08;2.53;;;0.70;;
30303;SDS011;17112;48.636;10.152;2023-05-10T08:14:34;1.75;;;0.65;;
30303;SDS011;17112;48.636;10.152;2023-05-10T08:17:01;3.67;;;0.70;;
30303;SDS011;17112;48.636;10.152;2023-05-10T08:19:28;1.20;;;0.60;;
30303;SDS011;17112;48.636;10.152;2023-05-10T08:21:53;1.98;;;0.60;;
30303;SDS011;17112;48.636;10.152;2023-05-10T08:24:20;0.82;;;0.65;;
30303;SDS011;17112;48.636;10.152;2023-05-10T08:26:46;2.05;;;0.68;;
30303;SDS011;17112;48.636;10.152;2023-05-10T08:29:12;1.85;;;0.60;;
30303;SDS011;17112;48.636;10.152;2023-05-10T08:31:39;0.85;;;0.60;;
30303;SDS011;17112;48.636;10.152;2023-05-10T08:34:04;0.88;;;0.60;;
30303;SDS011;17112;48.636;10.152;2023-05-10T08:36:30;1.58;;;0.80;;
30303;SDS011;17112;48.636;10.152;2023-05-10T08:38:57;1.77;;;0.70;;
30303;SDS011;17112;48.636;10.152;2023-05-10T08:41:23;2.65;;;0.77;;
30303;SDS011;17112;48.636;10.152;2023-05-10T08:43:50;1.73;;;0.70;;
30303;SDS011;17112;48.636;10.152;2023-05-10T08:46:17;1.10;;;0.70;;
30303;SDS011;17112;48.636;10.152;2023-05-10T08:48:44;1.85;;;0.60;;
30303;SDS011;17112;48.636;10.152;2023-05-10T08:51:19;2.83;;;0.70;;
30303;SDS011;17112;48.636;10.152;2023-05-10T08:53:48;2.10;;;0.60;;
30303;SDS011;17112;48.636;10.152;2023-05-10T08:56:15;1.15;;;0.70;;
30303;SDS011;17112;48.636;10.152;2023-05-10T08:58:42;0.50;;;0.50;;
30303;SDS011;17112;48.636;10.152;2023-05-10T09:01:08;1.88;;;0.60;;
30303;SDS011;17112;48.636;10.152;2023-05-10T09:03:35;0.45;;;0.45;;
30303;SDS011;17112;48.636;10.152;2023-05-10T09:06:03;0.70;;;0.50;;
30303;SDS011;17112;48.636;10.152;2023-05-10T09:08:30;0.82;;;0.60;;
30303;SDS011;17112;48.636;10.152;2023-05-10T09:10:56;1.17;;;0.60;;
30303;SDS011;17112;48.636;10.152;2023-05-10T09:13:22;1.48;;;0.73;;
30303;SDS011;17112;48.636;10.152;2023-05-10T09:15:49;1.05;;;0.70;;
30303;SDS011;17112;48.636;10.152;2023-05-10T09:18:15;1.00;;;0.82;;
30303;SDS011;17112;48.636;10.152;2023-05-10T09:20:41;0.47;;;0.47;;
30303;SDS011;17112;48.636;10.152;2023-05-10T09:23:07;0.65;;;0.50;;
30303;SDS011;17112;48.636;10.152;2023-05-10T09:25:33;1.30;;;0.50;;
30303;SDS011;17112;48.636;10.152;2023-05-10T09:27:59;2.38;;;0.50;;
30303;SDS011;17112;48.636;10.152;2023-05-10T09:30:26;1.25;;;0.57;;
30303;SDS011;17112;48.636;10.152;2023-05-10T09:32:54;2.05;;;0.52;;
30303;SDS011;17112;48.636;10.152;2023-05-10T09:35:22;0.73;;;0.52;;
30303;SDS011;17112;48.636;10.152;2023-05-10T09:37:50;0.40;;;0.35;;
30303;SDS011;17112;48.636;10.152;2023-05-10T09:40:20;2.78;;;0.50;;
30303;SDS011;17112;48.636;10.152;2023-05-10T09:43:04;1.10;;;0.50;;
30303;SDS011;17112;48.636;10.152;2023-05-10T09:45:33;1.15;;;0.60;;
30303;SDS011;17112;48.636;10.152;2023-05-10T09:48:00;0.40;;;0.40;;
30303;SDS011;17112;48.636;10.152;2023-05-10T09:50:27;0.60;;;0.50;;
30303;SDS011;17112;48.636;10.152;2023-05-10T09:53:00;0.50;;;0.40;;
30303;SDS011;17112;48.636;10.152;2023-05-10T09:58:10;0.43;;;0.30;;
30303;SDS011;17112;48.636;10.152;2023-05-10T10:00:38;0.60;;;0.40;;
30303;SDS011;17112;48.636;10.152;2023-05-10T10:03:05;1.00;;;0.30;;
30303;SDS011;17112;48.636;10.152;2023-05-10T10:05:32;1.25;;;0.70;;
30303;SDS011;17112;48.636;10.152;2023-05-10T10:07:59;0.40;;;0.40;;
30303;SDS011;17112;48.636;10.152;2023-05-10T10:10:27;1.42;;;0.60;;
30303;SDS011;17112;48.636;10.152;2023-05-10T10:12:53;0.43;;;0.43;;
30303;SDS011;17112;48.636;10.152;2023-05-10T10:15:20;1.27;;;0.40;;
30303;SDS011;17112;48.636;10.152;2023-05-10T10:17:48;0.65;;;0.38;;
30303;SDS011;17112;48.636;10.152;2023-05-10T10:20:14;2.95;;;0.40;;
30303;SDS011;17112;48.636;10.152;2023-05-10T10:22:40;1.02;;;0.40;;
30303;SDS011;17112;48.636;10.152;2023-05-10T10:25:08;1.85;;;0.50;;
30303;SDS011;17112;48.636;10.152;2023-05-10T10:30:31;2.05;;;0.52;;
30303;SDS011;17112;48.636;10.152;2023-05-10T10:35:54;0.80;;;0.50;;
30303;SDS011;17112;48.636;10.152;2023-05-10T10:38:23;1.27;;;0.45;;
30303;SDS011;17112;48.636;10.152;2023-05-10T10:40:54;1.00;;;0.50;;
30303;SDS011;17112;48.636;10.152;2023-05-10T10:43:28;0.98;;;0.50;;
30303;SDS011;17112;48.636;10.152;2023-05-10T10:51:38;1.30;;;0.65;;
30303;SDS011;17112;48.636;10.152;2023-05-10T10:54:10;6.10;;;0.60;;
30303;SDS011;17112;48.636;10.152;2023-05-10T10:56:36;2.95;;;0.60;;
30303;SDS011;17112;48.636;10.152;2023-05-10T10:59:02;3.10;;;0.60;;
30303;SDS011;17112;48.636;10.152;2023-05-10T11:01:32;0.98;;;0.50;;
30303;SDS011;17112;48.636;10.152;2023-05-10T11:06:28;2.00;;;0.70;;
30303;SDS011;17112;48.636;10.152;2023-05-10T11:08:58;1.88;;;0.70;;
30303;SDS011;17112;48.636;10.152;2023-05-10T11:11:24;1.00;;;0.55;;
30303;SDS011;17112;48.636;10.152;2023-05-10T11:13:50;0.50;;;0.50;;
30303;SDS011;17112;48.636;10.152;2023-05-10T11:16:20;2.70;;;0.50;;
30303;SDS011;17112;48.636;10.152;2023-05-10T11:21:44;0.65;;;0.50;;
30303;SDS011;17112;48.636;10.152;2023-05-10T11:24:14;0.90;;;0.50;;
30303;SDS011;17112;48.636;10.152;2023-05-10T11:26:49;0.60;;;0.60;;
30303;SDS011;17112;48.636;10.152;2023-05-10T11:29:16;4.95;;;0.60;;
30303;SDS011;17112;48.636;10.152;2023-05-10T11:31:43;1.58;;;0.60;;
30303;SDS011;17112;48.636;10.152;2023-05-10T11:34:10;1.13;;;0.50;;
30303;SDS011;17112;48.636;10.152;2023-05-10T11:36:36;0.52;;;0.52;;
30303;SDS011;17112;48.636;10.152;2023-05-10T11:39:02;1.42;;;0.50;;
30303;SDS011;17112;48.636;10.152;2023-05-10T11:41:29;1.10;;;0.50;;
30303;SDS011;17112;48.636;10.152;2023-05-10T11:43:56;0.68;;;0.60;;
30303;SDS011;17112;48.636;10.152;2023-05-10T11:46:24;1.17;;;0.50;;
30303;SDS011;17112;48.636;10.152;2023-05-10T11:48:55;1.55;;;0.55;;
30303;SDS011;17112;48.636;10.152;2023-05-10T11:51:23;1.65;;;0.60;;
30303;SDS011;17112;48.636;10.152;2023-05-10T11:53:50;3.00;;;0.70;;
30303;SDS011;17112;48.636;10.152;2023-05-10T11:56:18;1.08;;;0.60;;
30303;SDS011;17112;48.636;10.152;2023-05-10T11:58:53;2.58;;;0.60;;
30303;SDS011;17112;48.636;10.152;2023-05-10T12:01:20;0.98;;;0.60;;
30303;SDS011;17112;48.636;10.152;2023-05-10T12:03:47;0.93;;;0.50;;
30303;SDS011;17112;48.636;10.152;2023-05-10T12:06:14;1.15;;;0.60;;
30303;SDS011;17112;48.636;10.152;2023-05-10T12:08:43;1.85;;;0.70;;
30303;SDS011;17112;48.636;10.152;2023-05-10T12:11:11;1.17;;;0.70;;
30303;SDS011;17112;48.636;10.152;2023-05-10T12:13:40;0.68;;;0.50;;
30303;SDS011;17112;48.636;10.152;2023-05-10T12:16:21;1.10;;;0.50;;
30303;SDS011;17112;48.636;10.152;2023-05-10T12:18:49;0.90;;;0.60;;
30303;SDS011;17112;48.636;10.152;2023-05-10T12:21:18;0.90;;;0.50;;
30303;SDS011;17112;48.636;10.152;2023-05-10T12:23:45;0.50;;;0.50;;
30303;SDS011;17112;48.636;10.152;2023-05-10T12:26:12;2.80;;;0.65;;
30303;SDS011;17112;48.636;10.152;2023-05-10T12:28:39;0.50;;;0.50;;
30303;SDS011;17112;48.636;10.152;2023-05-10T12:31:05;2.42;;;0.70;;
30303;SDS011;17112;48.636;10.152;2023-05-10T12:33:41;0.60;;;0.50;;
30303;SDS011;17112;48.636;10.152;2023-05-10T12:36:08;0.50;;;0.50;;
30303;SDS011;17112;48.636;10.152;2023-05-10T12:38:36;0.50;;;0.47;;
30303;SDS011;17112;48.636;10.152;2023-05-10T12:41:10;1.02;;;0.50;;
30303;SDS011;17112;48.636;10.152;2023-05-10T12:43:37;3.45;;;0.68;;
30303;SDS011;17112;48.636;10.152;2023-05-10T12:46:16;1.23;;;0.50;;
30303;SDS011;17112;48.636;10.152;2023-05-10T12:48:43;0.75;;;0.60;;
30303;SDS011;17112;48.636;10.152;2023-05-10T12:51:11;0.82;;;0.60;;
30303;SDS011;17112;48.636;10.152;2023-05-10T12:53:41;0.55;;;0.50;;
30303;SDS011;17112;48.636;10.152;2023-05-10T12:56:07;6.70;;;0.93;;
30303;SDS011;17112;48.636;10.152;2023-05-10T12:58:32;1.38;;;0.70;;
30303;SDS011;17112;48.636;10.152;2023-05-10T13:00:59;0.85;;;0.50;;
30303;SDS011;17112;48.636;10.152;2023-05-10T13:03:25;0.82;;;0.57;;
30303;SDS011;17112;48.636;10.152;2023-05-10T13:05:50;1.45;;;0.40;;
30303;SDS011;17112;48.636;10.152;2023-05-10T13:08:16;2.45;;;0.60;;
30303;SDS011;17112;48.636;10.152;2023-05-10T13:10:42;0.68;;;0.57;;
30303;SDS011;17112;48.636;10.152;2023-05-10T13:13:08;1.40;;;0.60;;
30303;SDS011;17112;48.636;10.152;2023-05-10T13:15:33;0.73;;;0.73;;
30303;SDS011;17112;48.636;10.152;2023-05-10T13:17:59;2.08;;;0.40;;
30303;SDS011;17112;48.636;10.152;2023-05-10T13:20:25;2.75;;;0.52;;
30303;SDS011;17112;48.636;10.152;2023-05-10T13:22:52;3.65;;;0.70;;
30303;SDS011;17112;48.636;10.152;2023-05-10T13:25:17;3.40;;;0.50;;
30303;SDS011;17112;48.636;10.152;2023-05-10T13:27:43;1.45;;;0.40;;
30303;SDS011;17112;48.636;10.152;2023-05-10T13:30:09;1.15;;;0.40;;
30303;SDS011;17112;48.636;10.152;2023-05-10T13:32:36;2.80;;;0.50;;
30303;SDS011;17112;48.636;10.152;2023-05-10T13:35:02;3.03;;;0.57;;
30303;SDS011;17112;48.636;10.152;2023-05-10T13:37:29;1.42;;;0.60;;
30303;SDS011;17112;48.636;10.152;2023-05-10T13:39:55;1.60;;;0.70;;
30303;SDS011;17112;48.636;10.152;2023-05-10T13:42:22;1.60;;;0.57;;
30303;SDS011;17112;48.636;10.152;2023-05-10T13:44:48;0.73;;;0.45;;
30303;SDS011;17112;48.636;10.152;2023-05-10T13:47:17;5.97;;;0.85;;
30303;SDS011;17112;48.636;10.152;2023-05-10T13:49:43;1.17;;;0.52;;
30303;SDS011;17112;48.636;10.152;2023-05-10T13:52:10;1.45;;;0.57;;
30303;SDS011;17112;48.636;10.152;2023-05-10T13:54:37;0.70;;;0.50;;
30303;SDS011;17112;48.636;10.152;2023-05-10T13:57:03;1.10;;;0.52;;
30303;SDS011;17112;48.636;10.152;2023-05-10T13:59:29;0.63;;;0.50;;
30303;SDS011;17112;48.636;10.152;2023-05-10T14:01:58;0.52;;;0.40;;
30303;SDS011;17112;48.636;10.152;2023-05-10T14:04:24;1.60;;;0.50;;
30303;SDS011;17112;48.636;10.152;2023-05-10T14:06:50;0.95;;;0.47;;
30303;SDS011;17112;48.636;10.152;2023-05-10T14:09:16;2.50;;;0.50;;
30303;SDS011;17112;48.636;10.152;2023-05-10T14:11:42;0.43;;;0.40;;
30303;SDS011;17112;48.636;10.152;2023-05-10T14:14:09;0.60;;;0.40;;
30303;SDS011;17112;48.636;10.152;2023-05-10T14:16:35;1.27;;;0.60;;
30303;SDS011;17112;48.636;10.152;2023-05-10T14:19:01;4.20;;;0.68;;
30303;SDS011;17112;48.636;10.152;2023-05-10T14:21:27;1.85;;;0.68;;
30303;SDS011;17112;48.636;10.152;2023-05-10T14:23:54;2.30;;;0.50;;
30303;SDS011;17112;48.636;10.152;2023-05-10T14:26:20;3.25;;;0.50;;
30303;SDS011;17112;48.636;10.152;2023-05-10T14:28:46;2.40;;;0.65;;
30303;SDS011;17112;48.636;10.152;2023-05-10T14:31:12;1.40;;;0.80;;
30303;SDS011;17112;48.636;10.152;2023-05-10T14:33:39;1.05;;;0.60;;
30303;SDS011;17112;48.636;10.152;2023-05-10T14:36:05;1.02;;;0.47;;
30303;SDS011;17112;48.636;10.152;2023-05-10T14:38:31;1.45;;;0.60;;
30303;SDS011;17112;48.636;10.152;2023-05-10T14:40:57;2.20;;;0.70;;
30303;SDS011;17112;48.636;10.152;2023-05-10T14:43:23;1.55;;;0.80;;
30303;SDS011;17112;48.636;10.152;2023-05-10T14:45:49;1.58;;;0.75;;
30303;SDS011;17112;48.636;10.152;2023-05-10T14:48:14;2.90;;;0.80;;
30303;SDS011;17112;48.636;10.152;2023-05-10T14:50:42;1.33;;;0.50;;
30303;SDS011;17112;48.636;10.152;2023-05-10T14:53:08;2.40;;;0.82;;
30303;SDS011;17112;48.636;10.152;2023-05-10T14:55:34;2.28;;;0.68;;
30303;SDS011;17112;48.636;10.152;2023-05-10T14:58:00;0.82;;;0.60;;
30303;SDS011;17112;48.636;10.152;2023-05-10T15:00:27;1.30;;;0.60;;
30303;SDS011;17112;48.636;10.152;2023-05-10T15:02:53;2.00;;;0.77;;
30303;SDS011;17112;48.636;10.152;2023-05-10T15:05:19;3.20;;;0.70;;
30303;SDS011;17112;48.636;10.152;2023-05-10T15:07:45;2.85;;;0.95;;
30303;SDS011;17112;48.636;10.152;2023-05-10T15:10:10;4.28;;;0.70;;